createdAt,value
2023-05-06T00:00:22.689Z,0.00
2023-05-06T00:02:57.693Z,2.63
2023-05-06T00:05:31.014Z,0.00
2023-05-06T00:08:04.351Z,0.00
2023-05-06T00:10:37.733Z,0.20
2023-05-06T00:13:11.474Z,0.00
2023-05-06T00:15:44.918Z,0.00
2023-05-06T00:18:22.473Z,0.17
2023-05-06T00:20:56.519Z,0.00
2023-05-06T00:23:31.321Z,0.00
2023-05-06T00:26:05.354Z,0.00
2023-05-06T00:28:39.061Z,0.00
2023-05-06T00:31:12.929Z,0.00
2023-05-06T00:33:47.686Z,0.00
2023-05-06T00:36:21.409Z,0.00
2023-05-06T00:38:54.922Z,0.03
2023-05-06T00:41:32.878Z,0.00
2023-05-06T00:44:06.504Z,0.35
2023-05-06T00:46:40.759Z,0.00
2023-05-06T00:49:15.635Z,0.00
2023-05-06T00:51:49.453Z,0.00
2023-05-06T00:54:23.240Z,0.25
2023-05-06T00:56:56.654Z,0.00
2023-05-06T00:59:30.256Z,0.00
2023-05-06T01:02:04.516Z,6.53
2023-05-06T01:04:41.765Z,1.08
2023-05-06T01:07:31.127Z,0.00
2023-05-06T01:10:13.614Z,0.00
2023-05-06T01:12:55.848Z,0.00
2023-05-06T01:15:35.109Z,0.00
2023-05-06T01:18:12.178Z,0.82
2023-05-06T01:20:50.024Z,0.10
2023-05-06T01:23:25.276Z,0.00
2023-05-06T01:25:58.929Z,0.52
2023-05-06T01:28:32.501Z,0.00
2023-05-06T01:31:13.205Z,0.00
2023-05-06T01:33:55.550Z,0.00
2023-05-06T01:36:39.018Z,0.35
2023-05-06T01:39:18.630Z,0.00
2023-05-06T01:41:53.845Z,0.00
2023-05-06T01:44:30.715Z,0.00
2023-05-06T01:47:08.342Z,0.00
2023-05-06T01:49:42.009Z,0.00
2023-05-06T01:52:17.488Z,0.22
2023-05-06T01:54:52.618Z,0.10
2023-05-06T01:57:26.379Z,0.13
2023-05-06T01:59:59.896Z,0.10
2023-05-06T02:02:33.671Z,0.00
2023-05-06T02:05:08.404Z,0.20
2023-05-06T02:07:46.537Z,0.00
2023-05-06T02:10:21.838Z,0.00
2023-05-06T02:13:02.933Z,0.00
2023-05-06T02:15:36.395Z,0.00
2023-05-06T02:18:10.628Z,0.00
2023-05-06T02:20:44.525Z,0.00
2023-05-06T02:23:25.338Z,0.00
2023-05-06T02:26:02.954Z,0.00
2023-05-06T02:28:36.968Z,0.00
2023-05-06T02:31:10.764Z,0.00
2023-05-06T02:33:46.341Z,0.00
2023-05-06T02:36:20.361Z,0.00
2023-05-06T02:38:55.663Z,0.00
2023-05-06T02:41:32.656Z,0.00
2023-05-06T02:44:06.681Z,0.00
2023-05-06T02:46:47.226Z,0.00
2023-05-06T02:49:23.688Z,0.00
2023-05-06T02:51:59.340Z,0.10
2023-05-06T02:54:33.985Z,0.00
2023-05-06T02:57:12.452Z,0.00
2023-05-06T02:59:51.317Z,0.55
2023-05-06T03:02:28.991Z,0.00
2023-05-06T03:05:06.087Z,0.00
2023-05-06T03:07:40.593Z,0.28
2023-05-06T03:10:16.704Z,0.55
2023-05-06T03:12:52.775Z,0.00
2023-05-06T03:15:26.114Z,0.00
2023-05-06T03:18:00.328Z,0.50
2023-05-06T03:20:35.195Z,0.00
2023-05-06T03:23:10.329Z,0.00
2023-05-06T03:25:44.005Z,0.10
2023-05-06T03:28:21.449Z,0.30
2023-05-06T03:30:55.765Z,0.00
2023-05-06T03:33:29.246Z,0.00
2023-05-06T03:36:02.652Z,0.00
2023-05-06T03:38:36.222Z,0.00
2023-05-06T03:41:14.146Z,0.20
2023-05-06T03:43:49.301Z,2.30
2023-05-06T03:46:28.509Z,0.00
2023-05-06T03:49:03.175Z,0.15
2023-05-06T03:51:37.261Z,0.00
2023-05-06T03:54:10.895Z,0.10
2023-05-06T03:56:44.330Z,0.00
2023-05-06T03:59:20.223Z,0.00
2023-05-06T04:01:54.255Z,0.00
2023-05-06T04:04:28.763Z,0.00
2023-05-06T04:07:04.014Z,0.08
2023-05-06T04:09:37.556Z,0.00
2023-05-06T04:12:13.931Z,0.00
2023-05-06T04:14:49.622Z,0.88
2023-05-06T04:17:23.011Z,0.10
2023-05-06T04:19:56.621Z,0.00
2023-05-06T04:22:30.628Z,0.00
2023-05-06T04:25:04.307Z,0.10
2023-05-06T04:27:39.042Z,0.00
2023-05-06T04:30:16.415Z,0.00
2023-05-06T04:32:49.265Z,0.00
2023-05-06T04:35:23.528Z,0.15
2023-05-06T04:37:57.910Z,0.28
2023-05-06T04:40:36.768Z,0.00
2023-05-06T04:43:10.558Z,0.17
2023-05-06T04:45:49.162Z,0.08
2023-05-06T04:48:26.232Z,0.00
2023-05-06T04:51:04.424Z,0.20
2023-05-06T04:53:37.804Z,0.00
2023-05-06T04:56:10.664Z,0.00
2023-05-06T04:58:43.491Z,0.03
2023-05-06T05:01:19.329Z,0.00
2023-05-06T05:03:52.484Z,0.20
2023-05-06T05:06:27.141Z,0.63
2023-05-06T05:09:00.258Z,0.00
2023-05-06T05:11:34.171Z,0.00
2023-05-06T05:14:07.087Z,0.00
2023-05-06T05:16:41.960Z,0.00
2023-05-06T05:19:15.713Z,0.00
2023-05-06T05:21:50.701Z,0.00
2023-05-06T05:24:23.738Z,0.00
2023-05-06T05:26:57.270Z,0.00
2023-05-06T05:29:30.600Z,0.00
2023-05-06T05:32:08.318Z,0.35
2023-05-06T05:34:41.430Z,0.00
2023-05-06T05:37:14.772Z,0.03
2023-05-06T05:39:47.639Z,0.10
2023-05-06T05:42:21.841Z,0.17
2023-05-06T05:44:55.350Z,0.00
2023-05-06T05:47:29.780Z,0.10
2023-05-06T05:50:02.686Z,0.00
2023-05-06T05:52:36.500Z,0.00
2023-05-06T05:55:11.037Z,0.00
2023-05-06T05:57:45.311Z,0.00
2023-05-06T06:00:19.443Z,0.00
2023-05-06T06:02:53.642Z,0.00
2023-05-06T06:05:27.051Z,0.00
2023-05-06T06:08:02.218Z,0.00
2023-05-06T06:10:36.864Z,0.22
2023-05-06T06:13:15.937Z,0.45
2023-05-06T06:15:48.896Z,1.27
2023-05-06T06:18:23.200Z,1.23
2023-05-06T06:20:56.167Z,0.85
2023-05-06T06:23:29.976Z,0.00
2023-05-06T06:26:03.842Z,0.52
2023-05-06T06:28:38.975Z,0.00
2023-05-06T06:31:11.828Z,0.00
2023-05-06T06:33:46.250Z,22.73
2023-05-06T06:36:19.164Z,0.47
2023-05-06T06:38:52.002Z,0.00
2023-05-06T06:41:25.058Z,0.00
2023-05-06T06:43:57.802Z,0.00
2023-05-06T06:46:34.566Z,0.00
2023-05-06T06:49:08.736Z,0.00
2023-05-06T06:51:41.534Z,0.00
2023-05-06T06:54:14.321Z,0.00
2023-05-06T06:56:47.144Z,10.80
2023-05-06T06:59:19.973Z,0.10
2023-05-06T07:01:52.792Z,0.00
2023-05-06T07:04:28.109Z,0.00
2023-05-06T07:07:00.864Z,0.00
2023-05-06T07:09:35.474Z,0.00
2023-05-06T07:12:08.807Z,0.70
2023-05-06T07:14:41.623Z,0.00
2023-05-06T07:17:14.389Z,0.00
2023-05-06T07:19:48.869Z,0.00
2023-05-06T07:22:21.888Z,0.00
2023-05-06T07:24:55.161Z,0.00
2023-05-06T07:27:30.385Z,0.10
2023-05-06T07:30:03.212Z,0.00
2023-05-06T07:32:36.250Z,0.08
2023-05-06T07:35:10.858Z,0.00
2023-05-06T07:37:44.151Z,0.00
2023-05-06T07:40:17.027Z,0.00
2023-05-06T07:42:49.956Z,0.00
2023-05-06T07:45:25.163Z,0.00
2023-05-06T07:47:58.236Z,0.00
2023-05-06T07:50:32.790Z,0.28
2023-05-06T07:53:05.698Z,0.10
2023-05-06T07:55:38.755Z,0.00
2023-05-06T07:58:11.520Z,0.00
2023-05-06T08:00:44.489Z,0.00
2023-05-06T08:03:18.109Z,0.00
2023-05-06T08:05:52.921Z,6.60
2023-05-06T08:08:27.918Z,9.85
2023-05-06T08:11:01.283Z,5.35
2023-05-06T08:13:34.592Z,5.35
2023-05-06T08:16:08.205Z,5.40
2023-05-06T08:18:40.991Z,6.05
2023-05-06T08:21:15.274Z,4.72
2023-05-06T08:23:48.135Z,3.95
2023-05-06T08:26:21.365Z,6.35
2023-05-06T08:28:55.976Z,5.60
2023-05-06T08:31:28.779Z,3.88
2023-05-06T08:34:01.718Z,3.65
2023-05-06T08:36:36.297Z,3.90
2023-05-06T08:39:09.120Z,6.50
2023-05-06T08:41:42.936Z,6.05
2023-05-06T08:44:18.650Z,3.60
2023-05-06T08:46:51.795Z,3.35
2023-05-06T08:49:25.127Z,4.10
2023-05-06T08:51:59.666Z,8.23
2023-05-06T08:54:34.969Z,9.38
2023-05-06T08:57:12.879Z,4.78
2023-05-06T08:59:46.728Z,4.38
2023-05-06T09:02:19.541Z,5.82
2023-05-06T09:04:54.458Z,4.10
2023-05-06T09:07:28.636Z,3.50
2023-05-06T09:10:01.485Z,6.43
2023-05-06T09:12:37.757Z,6.13
2023-05-06T09:15:11.870Z,5.22
2023-05-06T09:17:45.324Z,4.13
2023-05-06T09:20:18.197Z,4.22
2023-05-06T09:22:53.960Z,3.90
2023-05-06T09:25:26.811Z,3.38
2023-05-06T09:28:05.436Z,3.50
2023-05-06T09:30:40.846Z,3.53
2023-05-06T09:33:13.780Z,4.78
2023-05-06T09:35:46.823Z,3.50
2023-05-06T09:38:21.758Z,3.83
2023-05-06T09:40:54.786Z,4.32
2023-05-06T09:43:27.680Z,3.40
2023-05-06T09:46:01.893Z,3.53
2023-05-06T09:48:34.955Z,4.07
2023-05-06T09:51:08.368Z,3.70
2023-05-06T09:53:44.816Z,2.15
2023-05-06T09:56:18.128Z,3.33
2023-05-06T09:58:52.484Z,3.47
2023-05-06T10:01:36.227Z,4.90
2023-05-06T10:04:12.902Z,2.53
2023-05-06T10:06:50.005Z,2.92
2023-05-06T10:09:25.444Z,2.13
2023-05-06T10:12:00.192Z,3.70
2023-05-06T10:14:33.146Z,1.88
2023-05-06T10:17:09.462Z,2.88
2023-05-06T10:19:46.330Z,4.82
2023-05-06T10:22:27.909Z,2.67
2023-05-06T10:25:13.081Z,3.00
2023-05-06T10:27:47.119Z,3.50
2023-05-06T10:30:20.898Z,2.50
2023-05-06T10:32:56.410Z,2.15
2023-05-06T10:35:43.344Z,3.53
2023-05-06T10:38:23.004Z,6.07
2023-05-06T10:40:59.185Z,1.55
2023-05-06T10:43:33.296Z,2.05
2023-05-06T10:46:09.212Z,2.55
2023-05-06T10:49:18.353Z,2.10
2023-05-06T10:52:12.759Z,2.13
2023-05-06T10:54:50.199Z,2.47
2023-05-06T10:57:27.068Z,1.08
2023-05-06T11:00:00.194Z,2.58
2023-05-06T11:02:33.265Z,2.17
2023-05-06T11:05:06.915Z,3.03
2023-05-06T11:07:39.728Z,3.03
2023-05-06T11:10:12.644Z,2.75
2023-05-06T11:12:51.255Z,2.75
2023-05-06T11:15:26.924Z,2.45
2023-05-06T11:17:59.931Z,3.58
2023-05-06T11:20:32.762Z,2.47
2023-05-06T11:23:05.981Z,1.15
2023-05-06T11:25:42.807Z,2.78
2023-05-06T11:28:17.035Z,1.27
2023-05-06T11:30:56.562Z,1.77
2023-05-06T11:33:33.489Z,2.73
2023-05-06T11:36:07.828Z,1.67
2023-05-06T11:38:44.200Z,1.65
2023-05-06T11:41:18.263Z,2.00
2023-05-06T11:43:54.649Z,1.60
2023-05-06T11:46:33.528Z,1.95
2023-05-06T11:49:06.976Z,1.55
2023-05-06T11:51:39.746Z,2.58
2023-05-06T11:54:12.498Z,2.65
2023-05-06T11:56:51.193Z,3.85
2023-05-06T11:59:31.164Z,2.97
2023-05-06T12:02:05.622Z,1.75
2023-05-06T12:04:39.847Z,2.35
2023-05-06T12:07:14.755Z,5.05
2023-05-06T12:09:50.065Z,4.25
2023-05-06T12:12:25.320Z,1.73
2023-05-06T12:14:59.887Z,2.15
2023-05-06T12:17:32.714Z,2.60
2023-05-06T12:20:12.553Z,1.50
2023-05-06T12:22:45.713Z,1.40
2023-05-06T12:25:19.298Z,0.90
2023-05-06T12:27:52.424Z,3.60
2023-05-06T12:30:34.414Z,4.07
2023-05-06T12:33:10.657Z,3.75
2023-05-06T12:35:43.838Z,3.00
2023-05-06T12:38:18.385Z,3.88
2023-05-06T12:40:55.386Z,2.13
2023-05-06T12:43:32.468Z,3.67
2023-05-06T12:46:07.786Z,2.38
2023-05-06T12:48:40.580Z,1.20
2023-05-06T12:51:21.389Z,3.30
2023-05-06T12:53:54.258Z,1.50
2023-05-06T12:56:27.142Z,1.83
2023-05-06T12:59:01.252Z,2.00
2023-05-06T13:01:35.513Z,2.92
2023-05-06T13:04:08.388Z,3.10
2023-05-06T13:06:41.162Z,3.30
2023-05-06T13:09:15.348Z,1.60
2023-05-06T13:11:48.600Z,3.88
2023-05-06T13:14:21.770Z,1.60
2023-05-06T13:16:56.353Z,1.60
2023-05-06T13:19:33.055Z,4.90
2023-05-06T13:22:06.300Z,1.02
2023-05-06T13:24:39.136Z,1.17
2023-05-06T13:27:12.269Z,1.70
2023-05-06T13:29:45.040Z,1.98
2023-05-06T13:32:19.144Z,1.15
2023-05-06T13:34:51.933Z,6.90
2023-05-06T13:37:24.730Z,2.17
2023-05-06T13:39:57.539Z,2.67
2023-05-06T13:42:30.719Z,3.35
2023-05-06T13:45:03.476Z,1.85
2023-05-06T13:47:37.667Z,2.22
2023-05-06T13:50:11.371Z,3.67
2023-05-06T13:52:44.258Z,2.65
2023-05-06T13:55:19.312Z,1.70
2023-05-06T13:57:52.331Z,1.38
2023-05-06T14:00:25.125Z,1.88
2023-05-06T14:02:59.527Z,1.90
2023-05-06T14:05:33.300Z,4.22
2023-05-06T14:08:06.534Z,2.50
2023-05-06T14:10:39.391Z,3.88
2023-05-06T14:13:12.502Z,1.40
2023-05-06T14:15:45.688Z,2.30
2023-05-06T14:18:19.821Z,1.45
2023-05-06T14:20:52.666Z,2.03
2023-05-06T14:23:25.641Z,1.35
2023-05-06T14:25:58.418Z,3.80
2023-05-06T14:28:31.203Z,2.72
2023-05-06T14:31:03.973Z,1.60
2023-05-06T14:33:38.678Z,3.33
2023-05-06T14:36:11.517Z,2.47
2023-05-06T14:38:44.321Z,8.13
2023-05-06T14:41:17.194Z,3.13
2023-05-06T14:43:50.045Z,1.75
2023-05-06T14:46:22.987Z,2.17
2023-05-06T14:48:57.153Z,4.63
2023-05-06T14:51:29.983Z,2.95
2023-05-06T14:54:02.755Z,2.88
2023-05-06T14:56:35.627Z,1.45
2023-05-06T14:59:08.580Z,2.50
2023-05-06T15:01:41.555Z,3.05
2023-05-06T15:04:15.766Z,2.25
2023-05-06T15:06:48.713Z,14.60
2023-05-06T15:09:21.426Z,2.75
2023-05-06T15:11:54.238Z,3.97
2023-05-06T15:14:27.134Z,1.08
2023-05-06T15:17:00.128Z,3.38
2023-05-06T15:19:34.785Z,1.55
2023-05-06T15:22:07.818Z,7.80
2023-05-06T15:24:40.812Z,3.00
2023-05-06T15:27:15.475Z,1.00
2023-05-06T15:29:48.443Z,4.43
2023-05-06T15:32:21.714Z,5.80
2023-05-06T15:34:56.125Z,3.28
2023-05-06T15:37:29.027Z,1.35
2023-05-06T15:40:02.248Z,1.10
2023-05-06T15:42:38.807Z,1.45
2023-05-06T15:45:12.620Z,1.52
2023-05-06T15:47:45.526Z,3.20
2023-05-06T15:50:32.909Z,1.75
2023-05-06T15:53:07.228Z,1.17
2023-05-06T15:55:46.667Z,1.83
2023-05-06T15:58:25.725Z,1.23
2023-05-06T16:00:58.624Z,1.30
2023-05-06T16:03:31.939Z,1.60
2023-05-06T16:06:06.443Z,2.50
2023-05-06T16:08:40.078Z,1.75
2023-05-06T16:11:14.218Z,1.70
2023-05-06T16:13:47.311Z,5.72
2023-05-06T16:16:20.333Z,1.02
2023-05-06T16:18:53.206Z,1.90
2023-05-06T16:21:27.426Z,1.33
2023-05-06T16:24:02.320Z,1.50
2023-05-06T16:26:35.507Z,1.10
2023-05-06T16:29:08.321Z,0.95
2023-05-06T16:31:41.404Z,5.55
2023-05-06T16:34:14.320Z,2.05
2023-05-06T16:36:48.547Z,0.88
2023-05-06T16:39:21.400Z,1.48
2023-05-06T16:41:54.277Z,1.45
2023-05-06T16:44:27.222Z,1.63
2023-05-06T16:47:00.216Z,3.47
2023-05-06T16:49:33.880Z,2.88
2023-05-06T16:52:08.128Z,1.60
2023-05-06T16:54:41.264Z,2.95
2023-05-06T16:57:14.134Z,3.00
2023-05-06T16:59:47.035Z,1.38
2023-05-06T17:02:19.958Z,1.27
2023-05-06T17:04:53.130Z,1.45
2023-05-06T17:07:27.556Z,1.55
2023-05-06T17:10:00.840Z,1.25
2023-05-06T17:12:34.060Z,1.27
2023-05-06T17:15:08.447Z,2.47
2023-05-06T17:17:45.680Z,4.25
2023-05-06T17:20:19.940Z,2.03
2023-05-06T17:22:54.454Z,1.20
2023-05-06T17:25:27.323Z,1.60
2023-05-06T17:28:00.339Z,3.13
2023-05-06T17:30:33.394Z,2.47
2023-05-06T17:33:07.294Z,3.65
2023-05-06T17:35:40.297Z,0.73
2023-05-06T17:38:16.820Z,3.08
2023-05-06T17:40:49.766Z,3.38
2023-05-06T17:43:22.696Z,6.50
2023-05-06T17:45:56.324Z,3.20
2023-05-06T17:48:29.275Z,2.30
2023-05-06T17:51:02.914Z,3.22
2023-05-06T17:53:38.605Z,1.60
2023-05-06T17:56:11.522Z,2.20
2023-05-06T17:58:44.511Z,1.80
2023-05-06T18:01:17.650Z,3.03
2023-05-06T18:03:51.304Z,2.95
2023-05-06T18:06:24.538Z,2.30
2023-05-06T18:08:58.917Z,1.00
2023-05-06T18:11:32.012Z,1.48
2023-05-06T18:14:05.413Z,2.65
2023-05-06T18:16:38.611Z,2.10
2023-05-06T18:19:11.944Z,2.47
2023-05-06T18:21:45.218Z,1.98
2023-05-06T18:24:20.046Z,2.33
2023-05-06T18:26:53.181Z,1.73
2023-05-06T18:29:27.625Z,4.30
2023-05-06T18:32:01.225Z,3.03
2023-05-06T18:34:34.535Z,6.53
2023-05-06T18:37:07.675Z,2.97
2023-05-06T18:39:43.343Z,6.70
2023-05-06T18:42:16.616Z,16.67
2023-05-06T18:44:50.468Z,12.98
2023-05-06T18:47:25.939Z,14.38
2023-05-06T18:50:00.776Z,11.98
2023-05-06T18:52:33.990Z,30.75
2023-05-06T18:55:09.869Z,11.93
2023-05-06T18:57:43.684Z,8.02
2023-05-06T19:00:16.995Z,5.30
2023-05-06T19:02:50.097Z,7.03
2023-05-06T19:05:23.468Z,4.25
2023-05-06T19:07:56.372Z,7.25
2023-05-06T19:10:30.766Z,6.00
2023-05-06T19:13:04.990Z,5.82
2023-05-06T19:15:37.854Z,3.55
2023-05-06T19:18:10.957Z,3.08
2023-05-06T19:20:44.756Z,3.78
2023-05-06T19:23:17.611Z,3.65
2023-05-06T19:25:52.213Z,2.28
2023-05-06T19:28:25.080Z,4.18
2023-05-06T19:30:57.959Z,5.50
2023-05-06T19:33:30.839Z,3.45
2023-05-06T19:36:03.941Z,4.40
2023-05-06T19:38:36.853Z,4.18
2023-05-06T19:41:11.587Z,4.38
2023-05-06T19:43:45.279Z,4.22
2023-05-06T19:46:18.085Z,4.00
2023-05-06T19:48:50.883Z,5.13
2023-05-06T19:51:23.656Z,4.38
2023-05-06T19:53:56.439Z,5.78
2023-05-06T19:56:30.710Z,3.83
2023-05-06T19:59:03.705Z,5.22
2023-05-06T20:01:36.485Z,3.85
2023-05-06T20:04:10.180Z,4.15
2023-05-06T20:06:43.030Z,5.20
2023-05-06T20:09:15.820Z,4.47
2023-05-06T20:12:23.926Z,4.53
2023-05-06T20:15:17.768Z,4.82
2023-05-06T20:18:13.872Z,4.75
2023-05-06T20:21:04.718Z,6.47
2023-05-06T20:23:49.609Z,5.10
2023-05-06T20:26:26.999Z,4.15
2023-05-06T20:29:15.426Z,5.53
2023-05-06T20:32:08.461Z,5.07
2023-05-06T20:35:02.866Z,8.48
2023-05-06T20:38:01.882Z,11.18
2023-05-06T20:41:07.260Z,5.55
2023-05-06T20:44:02.692Z,6.72
2023-05-06T20:47:13.973Z,6.80
2023-05-06T21:00:17.958Z,5.63
2023-05-06T21:03:29.669Z,6.07
2023-05-06T21:06:26.639Z,7.50
2023-05-06T21:09:21.558Z,4.57
2023-05-06T21:12:33.913Z,4.68
2023-05-06T21:15:20.214Z,5.45
2023-05-06T21:18:27.824Z,8.80
2023-05-06T21:21:23.815Z,5.78
2023-05-06T21:24:29.580Z,6.20
2023-05-06T21:27:20.209Z,3.95
2023-05-06T21:30:13.377Z,4.10
2023-05-06T21:33:02.465Z,5.68
2023-05-06T21:38:23.546Z,8.93
2023-05-06T21:41:12.326Z,4.65
2023-05-06T21:43:54.090Z,8.95
2023-05-06T21:46:56.824Z,5.72
2023-05-06T21:49:40.454Z,6.55
2023-05-06T21:52:36.823Z,6.32
2023-05-06T21:55:22.851Z,5.85
2023-05-06T21:58:10.046Z,5.32
2023-05-06T22:00:46.029Z,10.02
2023-05-06T22:03:19.164Z,7.40
2023-05-06T22:05:51.949Z,6.78
2023-05-06T22:08:26.303Z,5.70
2023-05-06T22:10:59.423Z,4.82
2023-05-06T22:13:32.441Z,5.20
2023-05-06T22:16:06.733Z,5.65
2023-05-06T22:18:43.230Z,5.78
2023-05-06T22:21:16.304Z,7.40
2023-05-06T22:23:50.550Z,8.45
2023-05-06T22:26:24.320Z,9.15
2023-05-06T22:28:57.575Z,9.68
2023-05-06T22:31:30.815Z,9.63
2023-05-06T22:34:04.764Z,7.90
2023-05-06T22:36:37.718Z,8.85
2023-05-06T22:39:12.052Z,7.38
2023-05-06T22:41:44.998Z,6.35
2023-05-06T22:44:18.167Z,7.43
2023-05-06T22:46:51.794Z,4.68
2023-05-06T22:49:28.840Z,4.40
2023-05-06T22:52:01.753Z,6.22
2023-05-06T22:54:36.251Z,7.57
2023-05-06T22:57:09.204Z,7.13
2023-05-06T22:59:42.240Z,8.55
2023-05-06T23:02:15.164Z,5.65
2023-05-06T23:04:47.979Z,6.45
2023-05-06T23:07:21.304Z,5.65
2023-05-06T23:09:55.636Z,7.22
2023-05-06T23:12:32.451Z,5.05
2023-05-06T23:15:06.532Z,9.32
2023-05-06T23:17:39.279Z,7.38
2023-05-06T23:20:13.185Z,7.32
2023-05-06T23:22:46.254Z,9.27
2023-05-06T23:25:21.072Z,5.22
2023-05-06T23:27:54.614Z,8.23
2023-05-06T23:30:27.582Z,6.55
2023-05-06T23:33:00.534Z,7.35
2023-05-06T23:35:33.601Z,7.28
2023-05-06T23:38:06.551Z,5.47
2023-05-06T23:40:40.752Z,7.47
2023-05-06T23:43:13.581Z,8.23
2023-05-06T23:45:46.375Z,8.15
2023-05-06T23:48:19.145Z,5.75
2023-05-06T23:50:54.438Z,7.68
2023-05-06T23:53:27.275Z,5.32
2023-05-06T23:56:01.514Z,5.28
2023-05-06T23:58:34.642Z,4.82
